Time;durP1;ratioP1;P1;durP2;ratioP2;P2;SDS_P1;SDS_P2;PMS_P1;PMS_P2;Temp;Humidity;BMP_temperature;BMP_pressure;BME280_temperature;BME280_humidity;BME280_pressure;Samples;Min_cycle;Max_cycle;Signal;HPM_P1;HPM_P2
2024/01/17 00:00:11;;;;;;;12.40;4.60;;;;;;;-5.69;85.88;95968.52;108658;1274;22527;-82
2024/01/17 00:03:02;;;;;;;8.60;4.60;;;;;;;-5.72;85.94;95967.48;108709;1274;22941;-82
2024/01/17 00:05:33;;;;;;;8.90;4.20;;;;;;;-5.58;86.61;95970.91;108664;1270;22514;-82
2024/01/17 00:08:04;;;;;;;9.30;3.40;;;;;;;-5.34;86.96;95968.13;108659;1273;23298;-82
2024/01/17 00:10:35;;;;;;;7.10;3.60;;;;;;;-5.09;87.24;95968.04;108605;1274;24221;-82
2024/01/17 00:13:06;;;;;;;10.40;5.50;;;;;;;-4.86;87.35;95966.08;108644;1274;22536;-82
2024/01/17 00:15:37;;;;;;;7.80;4.40;;;;;;;-4.71;87.20;95964.63;108684;1267;22551;-82
2024/01/17 00:18:08;;;;;;;6.30;3.60;;;;;;;-4.68;87.02;95960.80;108666;1274;22526;-82
2024/01/17 00:20:39;;;;;;;9.20;5.10;;;;;;;-4.66;86.87;95961.83;108643;1266;22548;-82
2024/01/17 00:23:10;;;;;;;6.10;4.70;;;;;;;-4.66;86.76;95961.71;108669;1274;22521;-82
2024/01/17 00:25:40;;;;;;;11.30;5.50;;;;;;;-4.65;86.81;95960.60;108676;1274;22620;-82
2024/01/17 00:28:11;;;;;;;6.90;4.40;;;;;;;-4.69;86.59;95961.92;108682;1274;22532;-82
2024/01/17 00:30:42;;;;;;;10.40;5.60;;;;;;;-4.86;86.12;95963.07;108678;1274;25415;-82
2024/01/17 00:33:14;;;;;;;11.60;5.20;;;;;;;-4.98;85.83;95950.84;108695;1273;22540;-82
2024/01/17 00:35:45;;;;;;;9.80;4.40;;;;;;;-5.11;85.92;95944.85;108711;1270;22641;-82
2024/01/17 00:38:16;;;;;;;10.70;5.00;;;;;;;-5.16;85.85;95942.35;108665;1274;22538;-82
2024/01/17 00:40:47;;;;;;;11.10;5.80;;;;;;;-5.30;85.56;95935.95;108613;1273;24329;-82
2024/01/17 00:43:18;;;;;;;7.10;4.00;;;;;;;-5.49;85.30;95931.50;108647;1267;22528;-82
2024/01/17 00:45:49;;;;;;;8.90;4.20;;;;;;;-5.65;85.33;95933.08;108629;1274;22565;-82
2024/01/17 00:48:20;;;;;;;8.20;4.20;;;;;;;-5.74;85.49;95932.14;108664;1274;22563;-82
2024/01/17 00:50:51;;;;;;;8.20;3.40;;;;;;;-5.82;85.22;95930.79;108553;1274;134864;-82
2024/01/17 00:53:22;;;;;;;11.50;4.90;;;;;;;-5.92;85.55;95927.16;108620;1267;25991;-82
2024/01/17 00:55:55;;;;;;;8.90;3.30;;;;;;;-5.96;85.36;95927.01;108650;1274;22537;-82
2024/01/17 00:58:26;;;;;;;8.40;4.10;;;;;;;-6.02;85.50;95922.58;108676;1274;25236;-82
2024/01/17 01:00:57;;;;;;;7.10;3.60;;;;;;;-6.07;85.30;95922.70;108665;1270;22629;-82
2024/01/17 01:03:28;;;;;;;5.70;3.60;;;;;;;-6.11;85.47;95918.73;108721;1274;22637;-82
2024/01/17 01:05:59;;;;;;;9.80;4.40;;;;;;;-6.15;85.53;95920.90;108683;1268;25297;-82
2024/01/17 01:08:30;;;;;;;9.00;4.20;;;;;;;-6.13;85.80;95920.55;108680;1274;22524;-82
2024/01/17 01:11:01;;;;;;;10.60;5.00;;;;;;;-6.07;85.90;95918.08;108695;1272;22528;-82
2024/01/17 01:13:32;;;;;;;11.10;3.80;;;;;;;-6.06;85.72;95919.14;108661;1270;22545;-81
2024/01/17 01:16:03;;;;;;;11.80;5.10;;;;;;;-6.14;85.59;95920.27;108665;1273;25621;-82
2024/01/17 01:18:35;;;;;;;11.70;4.00;;;;;;;-6.17;85.59;95919.14;108717;1270;22557;-82
2024/01/17 01:21:06;;;;;;;11.00;6.20;;;;;;;-6.17;85.66;95918.51;108692;1273;23949;-82
2024/01/17 01:23:37;;;;;;;9.20;4.40;;;;;;;-6.22;85.53;95914.34;108698;1267;22537;-82
2024/01/17 01:26:08;;;;;;;8.60;4.10;;;;;;;-6.26;85.54;95913.57;108682;1273;22632;-82
2024/01/17 01:28:39;;;;;;;7.50;3.80;;;;;;;-6.27;85.63;95911.27;108680;1270;22524;-82
2024/01/17 01:31:10;;;;;;;7.40;3.60;;;;;;;-6.26;86.02;95909.65;108602;1273;22540;-82
2024/01/17 01:33:41;;;;;;;6.00;3.10;;;;;;;-6.23;85.70;95907.70;108645;1274;22535;-82
2024/01/17 01:36:12;;;;;;;5.50;3.50;;;;;;;-6.19;85.87;95905.44;108637;1267;26452;-82
2024/01/17 01:38:43;;;;;;;8.00;3.30;;;;;;;-6.24;85.42;95899.98;108674;1273;22667;-80
2024/01/17 01:41:13;;;;;;;7.80;3.20;;;;;;;-6.34;85.39;95893.23;108829;1274;22534;-81
2024/01/17 01:43:44;;;;;;;7.40;3.10;;;;;;;-6.28;85.91;95890.79;108846;1267;22530;-81
2024/01/17 01:46:19;;;;;;;5.60;2.80;;;;;;;-6.11;86.14;95887.13;108763;1269;22524;-82
2024/01/17 01:48:51;;;;;;;8.10;4.20;;;;;;;-6.02;86.22;95882.77;108678;1269;22532;-82
2024/01/17 01:51:23;;;;;;;8.80;4.20;;;;;;;-5.77;86.63;95878.59;108659;1273;22532;-82
2024/01/17 01:53:57;;;;;;;7.10;3.40;;;;;;;-5.75;85.95;95874.59;108667;1267;22527;-82
2024/01/17 01:56:32;;;;;;;5.90;3.40;;;;;;;-5.86;85.47;95869.83;108685;1274;22625;-82
2024/01/17 01:59:04;;;;;;;10.20;4.60;;;;;;;-5.97;85.73;95867.55;108679;1273;24228;-81
2024/01/17 02:01:36;;;;;;;9.00;4.00;;;;;;;-5.83;85.89;95871.33;108697;1273;22517;-82
2024/01/17 02:04:07;;;;;;;5.10;2.30;;;;;;;-5.83;85.71;95871.45;108651;1274;24380;-82
2024/01/17 02:06:39;;;;;;;8.70;4.10;;;;;;;-5.82;85.55;95874.83;108715;1274;22538;-82
2024/01/17 02:09:10;;;;;;;11.30;4.60;;;;;;;-5.70;85.85;95875.39;108670;1274;22522;-82
2024/01/17 02:11:41;;;;;;;6.50;3.10;;;;;;;-5.68;85.79;95875.59;108662;1273;22566;-82
2024/01/17 02:14:16;;;;;;;7.70;3.70;;;;;;;-5.64;85.70;95876.48;108741;1267;25194;-82
2024/01/17 02:16:47;;;;;;;8.20;3.30;;;;;;;-5.53;85.78;95870.61;108688;1274;22536;-82
2024/01/17 02:19:21;;;;;;;8.70;3.80;;;;;;;-5.40;85.91;95867.19;108625;1274;22531;-82
2024/01/17 02:21:52;;;;;;;4.00;2.60;;;;;;;-5.31;85.77;95865.90;108660;1273;22542;-82
2024/01/17 02:24:23;;;;;;;3.70;2.20;;;;;;;-5.32;85.21;95862.48;108691;1273;22644;-82
2024/01/17 02:26:54;;;;;;;6.10;2.70;;;;;;;-5.36;85.31;95863.41;108709;1274;25373;-81
2024/01/17 02:29:25;;;;;;;5.70;3.00;;;;;;;-5.44;84.95;95860.83;108635;1273;23189;-82
2024/01/17 02:31:57;;;;;;;6.40;3.50;;;;;;;-5.57;84.77;95860.65;108748;1270;24344;-82
2024/01/17 02:34:28;;;;;;;7.60;4.20;;;;;;;-5.71;84.56;95865.27;108710;1267;22599;-79
2024/01/17 02:36:58;;;;;;;8.60;4.50;;;;;;;-5.82;84.61;95862.77;108717;1274;22540;-82
2024/01/17 02:39:30;;;;;;;7.90;4.40;;;;;;;-5.90;84.42;95855.89;108652;1270;22534;-81
2024/01/17 02:42:00;;;;;;;5.30;2.90;;;;;;;-5.96;84.42;95854.21;108707;1273;22538;-82
2024/01/17 02:44:32;;;;;;;7.50;3.30;;;;;;;-5.93;84.91;95847.38;108692;1267;22537;-82
2024/01/17 02:47:02;;;;;;;7.30;3.90;;;;;;;-5.93;84.75;95841.66;108629;1273;22527;-81
2024/01/17 02:49:34;;;;;;;8.20;3.60;;;;;;;-5.95;84.66;95837.41;108689;1270;22555;-81
2024/01/17 02:52:05;;;;;;;10.30;4.90;;;;;;;-6.03;84.31;95831.21;108651;1267;23075;-82
2024/01/17 02:54:37;;;;;;;10.90;4.40;;;;;;;-6.10;84.48;95828.71;108644;1273;22524;-81
2024/01/17 02:57:08;;;;;;;11.80;4.80;;;;;;;-6.21;84.16;95827.17;108673;1267;22547;-81
2024/01/17 02:59:39;;;;;;;7.60;4.00;;;;;;;-6.28;84.22;95830.23;108666;1266;22534;-81
2024/01/17 03:02:09;;;;;;;7.30;4.10;;;;;;;-6.37;84.05;95830.55;108665;1273;22522;-82
2024/01/17 03:04:40;;;;;;;8.10;4.30;;;;;;;-6.43;84.02;95825.30;108633;1268;22529;-82
2024/01/17 03:07:11;;;;;;;7.80;4.20;;;;;;;-6.47;84.23;95822.31;108672;1266;22525;-81
2024/01/17 03:09:42;;;;;;;7.50;3.50;;;;;;;-6.48;84.21;95823.99;108643;1274;22525;-82
2024/01/17 03:12:18;;;;;;;6.90;3.70;;;;;;;-6.49;84.22;95821.05;108649;1267;22643;-81
2024/01/17 03:14:51;;;;;;;8.30;3.70;;;;;;;-6.46;84.35;95823.21;108728;1273;22545;-82
2024/01/17 03:17:22;;;;;;;7.30;3.80;;;;;;;-6.35;84.99;95821.67;108676;1267;22535;-82
2024/01/17 03:19:54;;;;;;;5.40;2.80;;;;;;;-6.18;84.93;95815.71;108707;1269;22529;-82
2024/01/17 03:22:27;;;;;;;5.50;2.90;;;;;;;-5.92;85.46;95817.77;108647;1274;25422;-81
2024/01/17 03:24:58;;;;;;;4.60;2.80;;;;;;;-5.68;85.56;95819.16;108654;1267;22538;-82
2024/01/17 03:27:29;;;;;;;9.40;2.90;;;;;;;-5.50;85.42;95811.31;108638;1273;22535;-81
2024/01/17 03:30:00;;;;;;;7.60;3.00;;;;;;;-5.31;85.44;95810.80;108661;1273;22629;-82
2024/01/17 03:32:31;;;;;;;8.40;5.40;;;;;;;-5.22;85.26;95807.47;108667;1266;22546;-82
2024/01/17 03:35:02;;;;;;;8.30;4.40;;;;;;;-5.14;85.01;95806.98;108691;1267;25348;-82
2024/01/17 03:37:33;;;;;;;9.40;4.30;;;;;;;-5.08;84.94;95800.71;108658;1274;22811;-81
2024/01/17 03:40:04;;;;;;;7.90;3.10;;;;;;;-5.17;84.04;95794.29;108615;1273;22527;-82
2024/01/17 03:42:35;;;;;;;5.30;2.80;;;;;;;-5.45;83.92;95791.05;108672;1250;22566;-82
2024/01/17 03:45:07;;;;;;;7.40;4.50;;;;;;;-5.55;83.96;95792.33;108577;1273;25348;-82
2024/01/17 03:47:38;;;;;;;6.60;3.60;;;;;;;-5.62;84.07;95787.03;108638;1273;23063;-82
2024/01/17 03:50:10;;;;;;;8.60;4.50;;;;;;;-5.69;84.07;95781.55;108533;1271;23989;-80
2024/01/17 03:52:41;;;;;;;10.20;4.70;;;;;;;-5.72;83.92;95777.77;108610;1273;24234;-81
2024/01/17 03:55:11;;;;;;;11.10;4.90;;;;;;;-5.72;83.89;95775.39;108610;1267;22534;-81
2024/01/17 03:57:42;;;;;;;9.00;4.10;;;;;;;-5.77;83.83;95775.38;108542;1274;22558;-81
2024/01/17 04:00:15;;;;;;;9.30;3.60;;;;;;;-5.77;83.99;95772.41;108534;1269;26411;-81
2024/01/17 04:02:46;;;;;;;7.90;3.60;;;;;;;-5.73;84.02;95772.65;108567;1268;22545;-81
2024/01/17 04:05:20;;;;;;;8.50;3.20;;;;;;;-5.72;83.96;95771.81;108568;1266;25232;-81
2024/01/17 04:07:51;;;;;;;8.00;3.70;;;;;;;-5.70;84.09;95773.56;108541;1269;22530;-81
2024/01/17 04:10:21;;;;;;;8.90;4.50;;;;;;;-5.72;83.86;95774.27;108544;1267;24299;-81
2024/01/17 04:12:52;;;;;;;11.50;4.90;;;;;;;-5.79;83.90;95780.09;108605;1273;22550;-81
2024/01/17 04:15:23;;;;;;;13.70;5.90;;;;;;;-5.81;84.01;95778.14;108607;1266;25348;-81
2024/01/17 04:17:54;;;;;;;11.30;5.20;;;;;;;-5.88;83.60;95782.33;108589;1274;22524;-81
2024/01/17 04:20:25;;;;;;;13.10;6.50;;;;;;;-5.96;83.36;95787.04;108551;1274;22523;-81
2024/01/17 04:22:56;;;;;;;14.80;8.10;;;;;;;-6.03;83.52;95792.11;108561;1273;22555;-81
2024/01/17 04:25:27;;;;;;;13.50;6.10;;;;;;;-6.04;83.46;95790.77;108576;1270;24245;-81
2024/01/17 04:27:58;;;;;;;14.30;6.50;;;;;;;-6.02;83.57;95792.84;108584;1270;25978;-81
2024/01/17 04:30:29;;;;;;;9.40;5.10;;;;;;;-5.97;83.85;95788.83;108574;1270;24242;-81
2024/01/17 04:33:00;;;;;;;11.30;5.60;;;;;;;-5.93;83.80;95776.16;108547;1273;22534;-81
2024/01/17 04:35:31;;;;;;;12.80;6.60;;;;;;;-5.91;83.90;95774.54;108618;1267;25411;-81
2024/01/17 04:38:03;;;;;;;12.00;6.40;;;;;;;-5.92;83.70;95774.42;108541;1274;23245;-81
2024/01/17 04:40:34;;;;;;;10.80;5.00;;;;;;;-5.96;83.62;95770.69;108626;1256;24293;-81
2024/01/17 04:43:05;;;;;;;6.90;4.30;;;;;;;-6.07;83.11;95765.50;108544;1274;22645;-81
2024/01/17 04:45:36;;;;;;;8.50;3.80;;;;;;;-6.15;83.14;95755.81;108570;1263;24274;-81
2024/01/17 04:48:11;;;;;;;8.30;4.20;;;;;;;-6.17;83.08;95755.33;108598;1269;22659;-81
2024/01/17 04:50:43;;;;;;;9.90;4.20;;;;;;;-6.21;82.94;95753.73;108561;1273;22563;-81
2024/01/17 04:53:15;;;;;;;10.10;4.20;;;;;;;-6.30;83.22;95753.02;108579;1274;22528;-81
2024/01/17 04:55:46;;;;;;;9.40;4.90;;;;;;;-6.37;83.10;95756.09;108581;1268;23018;-81
2024/01/17 04:58:18;;;;;;;10.10;4.90;;;;;;;-6.44;82.94;95752.46;108603;1272;24341;-81
2024/01/17 05:00:49;;;;;;;10.40;5.00;;;;;;;-6.53;83.26;95752.23;108564;1266;22591;-81
2024/01/17 05:03:20;;;;;;;11.10;4.80;;;;;;;-6.60;83.03;95749.70;108598;1274;22524;-81
2024/01/17 05:05:51;;;;;;;8.50;4.60;;;;;;;-6.68;82.90;95739.55;108569;1274;24837;-81
2024/01/17 05:08:22;;;;;;;7.40;4.20;;;;;;;-6.77;82.96;95736.33;108562;1267;22602;-81
2024/01/17 05:10:54;;;;;;;8.10;4.90;;;;;;;-6.81;83.29;95738.58;108550;1267;22518;-81
2024/01/17 05:13:25;;;;;;;9.10;4.10;;;;;;;-6.86;83.10;95735.48;108588;1274;22570;-81
2024/01/17 05:15:56;;;;;;;9.30;5.30;;;;;;;-6.92;83.28;95734.84;108584;1273;22517;-81
2024/01/17 05:18:27;;;;;;;12.80;6.20;;;;;;;-6.94;83.80;95730.23;108602;1270;22530;-81
2024/01/17 05:20:58;;;;;;;10.90;5.60;;;;;;;-6.94;83.44;95724.80;108563;1273;22529;-81
2024/01/17 05:23:29;;;;;;;10.00;4.80;;;;;;;-7.02;82.97;95727.22;108563;1274;22574;-81
2024/01/17 05:26:00;;;;;;;12.50;5.10;;;;;;;-7.14;83.09;95732.90;108557;1274;22546;-81
2024/01/17 05:28:30;;;;;;;8.50;4.80;;;;;;;-7.23;83.10;95727.96;108593;1273;22928;-80
2024/01/17 05:31:02;;;;;;;8.60;4.20;;;;;;;-7.29;83.33;95722.40;108603;1266;22542;-81
2024/01/17 05:33:33;;;;;;;8.20;5.10;;;;;;;-7.31;83.57;95714.06;108569;1267;22535;-81
2024/01/17 05:36:04;;;;;;;7.40;4.10;;;;;;;-7.33;83.47;95710.59;108611;1267;22540;-81
2024/01/17 05:38:35;;;;;;;7.50;4.10;;;;;;;-7.35;83.77;95710.58;108545;1266;22545;-80
2024/01/17 05:41:06;;;;;;;8.20;4.30;;;;;;;-7.35;84.04;95712.80;108627;1271;25273;-80
2024/01/17 05:43:37;;;;;;;9.70;4.10;;;;;;;-7.33;84.28;95708.85;108579;1274;22761;-80
2024/01/17 05:46:09;;;;;;;8.80;4.40;;;;;;;-7.29;84.00;95706.95;108601;1272;22542;-80
2024/01/17 05:48:40;;;;;;;14.70;6.20;;;;;;;-7.29;83.90;95704.01;108581;1274;22527;-80
2024/01/17 05:51:12;;;;;;;14.30;8.00;;;;;;;-7.41;83.66;95700.38;108381;1270;22547;-80
2024/01/17 05:53:43;;;;;;;18.00;9.50;;;;;;;-7.42;83.81;95696.92;108392;1276;22533;-80
2024/01/17 05:56:14;;;;;;;24.90;13.50;;;;;;;-7.47;83.49;95690.98;108382;1276;23988;-80
2024/01/17 05:58:45;;;;;;;32.40;17.70;;;;;;;-7.52;83.58;95688.85;108384;1268;22537;-80
2024/01/17 06:01:16;;;;;;;25.30;13.00;;;;;;;-7.52;83.75;95688.57;108589;1273;22531;-80
2024/01/17 06:03:46;;;;;;;23.40;11.10;;;;;;;-7.58;83.96;95683.45;108619;1273;22523;-80
2024/01/17 06:06:18;;;;;;;20.10;10.10;;;;;;;-7.58;83.87;95686.25;108610;1266;22942;-80
2024/01/17 06:08:49;;;;;;;23.70;11.20;;;;;;;-7.57;84.29;95684.87;108547;1272;22619;-81
2024/01/17 06:11:19;;;;;;;10.70;6.10;;;;;;;-7.47;84.72;95685.31;108582;1273;22530;-81
2024/01/17 06:13:53;;;;;;;11.40;4.30;;;;;;;-7.41;84.92;95677.73;108607;1273;23165;-81
2024/01/17 06:16:24;;;;;;;6.90;3.70;;;;;;;-7.30;85.35;95674.81;108681;1270;22609;-81
2024/01/17 06:18:59;;;;;;;8.40;4.20;;;;;;;-7.25;85.07;95669.33;108821;1273;23807;-80
2024/01/17 06:21:30;;;;;;;9.60;4.20;;;;;;;-7.35;84.70;95664.45;108818;1273;25394;-81
2024/01/17 06:24:01;;;;;;;11.20;6.00;;;;;;;-7.40;84.64;95668.50;108654;1266;22738;-80
2024/01/17 06:26:32;;;;;;;11.40;5.40;;;;;;;-7.48;83.86;95665.39;108652;1273;22573;-80
2024/01/17 06:29:03;;;;;;;11.90;6.20;;;;;;;-7.53;84.20;95669.64;108625;1273;23865;-80
2024/01/17 06:31:35;;;;;;;9.10;4.10;;;;;;;-7.54;83.85;95668.52;108582;1266;22530;-80
2024/01/17 06:34:06;;;;;;;11.60;4.50;;;;;;;-7.53;84.04;95665.29;108582;1273;22562;-80
2024/01/17 06:36:36;;;;;;;10.50;4.90;;;;;;;-7.46;84.40;95666.45;108564;1273;22567;-80
2024/01/17 06:39:08;;;;;;;8.80;4.40;;;;;;;-7.37;84.73;95664.16;108547;1266;25376;-81
2024/01/17 06:41:40;;;;;;;11.20;4.40;;;;;;;-7.19;84.71;95660.48;108611;1272;22528;-80
2024/01/17 06:44:11;;;;;;;14.90;6.00;;;;;;;-7.11;84.69;95666.19;108599;1273;22531;-80
2024/01/17 06:46:42;;;;;;;14.60;6.40;;;;;;;-7.10;84.70;95660.85;108580;1267;24243;-80
2024/01/17 06:49:14;;;;;;;9.50;4.00;;;;;;;-7.10;84.57;95654.11;108529;1269;24272;-80
2024/01/17 06:51:45;;;;;;;11.60;5.80;;;;;;;-7.12;84.44;95649.86;108586;1267;22527;-80
2024/01/17 06:54:16;;;;;;;9.80;4.80;;;;;;;-7.07;84.63;95640.33;108585;1274;22524;-80
2024/01/17 06:56:47;;;;;;;12.50;6.70;;;;;;;-6.97;84.69;95640.61;108583;1273;22528;-80
2024/01/17 06:59:18;;;;;;;13.80;6.50;;;;;;;-6.86;84.89;95635.34;108565;1272;23819;-80
2024/01/17 07:01:52;;;;;;;8.90;4.80;;;;;;;-6.80;84.66;95632.77;108585;1273;22537;-80
2024/01/17 07:04:23;;;;;;;12.00;4.90;;;;;;;-6.70;84.73;95627.07;108580;1274;22653;-80
2024/01/17 07:06:54;;;;;;;13.60;5.10;;;;;;;-6.60;84.37;95625.50;108624;1274;23372;-80
2024/01/17 07:09:25;;;;;;;10.20;5.60;;;;;;;-6.34;84.62;95618.71;108579;1274;22555;-80
2024/01/17 07:11:58;;;;;;;11.30;6.00;;;;;;;-6.03;84.57;95612.54;108560;1273;24196;-80
2024/01/17 07:14:29;;;;;;;8.90;5.30;;;;;;;-5.69;84.68;95609.27;108546;1267;22554;-80
2024/01/17 07:17:00;;;;;;;9.80;5.90;;;;;;;-5.40;84.27;95600.30;108586;1273;22701;-81
2024/01/17 07:19:31;;;;;;;7.80;4.40;;;;;;;-5.25;83.78;95601.56;108578;1273;22901;-81
2024/01/17 07:22:01;;;;;;;9.00;5.20;;;;;;;-4.84;84.01;95594.36;108543;1256;24242;-81
2024/01/17 07:24:32;;;;;;;9.30;5.40;;;;;;;-4.30;84.15;95586.75;108629;1266;22638;-81
2024/01/17 07:27:03;;;;;;;9.50;5.80;;;;;;;-3.64;83.87;95584.40;108550;1273;22530;-81
2024/01/17 07:29:35;;;;;;;11.50;6.20;;;;;;;-3.06;83.58;95574.65;108545;1270;25501;-81
2024/01/17 07:32:06;;;;;;;8.20;5.30;;;;;;;-2.39;83.28;95567.92;108632;1266;22530;-81
2024/01/17 07:34:37;;;;;;;10.20;5.80;;;;;;;-1.90;82.64;95564.00;108556;1270;22554;-81
2024/01/17 07:37:08;;;;;;;11.70;6.20;;;;;;;-1.52;81.86;95559.75;108606;1273;22529;-81
2024/01/17 07:39:39;;;;;;;11.30;6.00;;;;;;;-1.11;81.65;95550.73;108465;1274;27629;-81
2024/01/17 07:42:10;;;;;;;10.30;6.50;;;;;;;-1.17;79.77;95549.38;108592;1273;22567;-81
2024/01/17 07:44:41;;;;;;;12.30;7.10;;;;;;;-1.26;79.39;95549.31;108575;1273;22538;-81
2024/01/17 07:47:12;;;;;;;10.50;6.00;;;;;;;-1.07;79.41;95547.85;108591;1272;22536;-81
2024/01/17 07:49:43;;;;;;;13.50;7.40;;;;;;;-1.30;78.63;95549.44;108587;1267;24226;-81
2024/01/17 07:52:14;;;;;;;16.00;8.80;;;;;;;-1.59;78.86;95544.88;108606;1274;24146;-81
2024/01/17 07:54:45;;;;;;;15.20;8.00;;;;;;;-1.41;78.92;95541.83;108583;1274;24186;-81
2024/01/17 07:57:16;;;;;;;13.70;7.20;;;;;;;-1.04;78.73;95538.35;108567;1274;22552;-81
2024/01/17 07:59:47;;;;;;;12.10;7.50;;;;;;;-0.61;79.09;95533.36;108564;1269;26138;-81
2024/01/17 08:02:18;;;;;;;13.10;7.20;;;;;;;-0.43;78.37;95532.47;108575;1274;22517;-80
2024/01/17 08:04:52;;;;;;;12.90;7.40;;;;;;;-0.41;77.65;95531.57;108572;1267;22524;-81
2024/01/17 08:07:24;;;;;;;11.30;6.40;;;;;;;-0.39;77.32;95530.45;108574;1273;22929;-81
2024/01/17 08:09:56;;;;;;;11.60;6.80;;;;;;;-0.66;76.18;95526.81;108590;1274;22579;-81
2024/01/17 08:12:27;;;;;;;14.00;7.10;;;;;;;-0.84;76.10;95526.57;108591;1274;22549;-80
2024/01/17 08:14:58;;;;;;;10.00;6.60;;;;;;;-0.63;76.82;95523.70;108600;1266;25347;-81
2024/01/17 08:17:29;;;;;;;9.50;5.40;;;;;;;-0.20;77.17;95524.59;108542;1273;22619;-80
2024/01/17 08:19:59;;;;;;;9.70;5.40;;;;;;;0.01;76.57;95529.83;108577;1273;22532;-80
2024/01/17 08:22:30;;;;;;;8.40;5.00;;;;;;;0.09;76.10;95517.80;108588;1273;22525;-80
2024/01/17 08:25:01;;;;;;;10.20;5.90;;;;;;;-0.24;74.61;95517.92;108640;1269;22514;-81
2024/01/17 08:27:32;;;;;;;12.50;6.70;;;;;;;-0.61;74.29;95516.34;108558;1273;24451;-80
2024/01/17 08:30:04;;;;;;;10.70;6.80;;;;;;;-0.62;75.33;95509.60;108598;1273;22551;-81
2024/01/17 08:32:35;;;;;;;11.30;6.10;;;;;;;-0.39;75.67;95511.50;108564;1267;23464;-80
2024/01/17 08:35:06;;;;;;;13.70;7.30;;;;;;;-0.64;74.32;95495.52;108577;1270;23852;-81
2024/01/17 08:37:38;;;;;;;13.10;7.20;;;;;;;-0.85;74.45;95498.32;108533;1273;22673;-81
2024/01/17 08:40:11;;;;;;;12.20;6.70;;;;;;;-0.70;74.58;95487.91;108569;1266;26174;-80
2024/01/17 08:42:44;;;;;;;12.50;6.50;;;;;;;-0.39;74.66;95488.68;108569;1273;24416;-80
2024/01/17 08:45:15;;;;;;;13.90;7.60;;;;;;;-0.30;74.19;95481.89;108561;1274;26180;-81
2024/01/17 08:47:46;;;;;;;11.90;6.90;;;;;;;-0.16;74.38;95479.09;108565;1269;23037;-81
2024/01/17 08:50:19;;;;;;;12.20;7.10;;;;;;;-0.20;74.22;95467.95;108530;1274;25418;-80
2024/01/17 08:52:50;;;;;;;12.80;7.50;;;;;;;-0.29;73.60;95466.04;108586;1273;22542;-81
2024/01/17 08:55:20;;;;;;;11.70;6.70;;;;;;;-0.31;73.41;95462.60;108564;1273;22643;-81
2024/01/17 08:57:51;;;;;;;11.10;7.20;;;;;;;-0.31;73.55;95455.84;108585;1259;22531;-81
2024/01/17 09:00:22;;;;;;;11.60;6.90;;;;;;;-0.35;73.27;95449.48;108593;1266;30447;-80
2024/01/17 09:02:53;;;;;;;12.90;6.50;;;;;;;-0.34;72.96;95450.33;108539;1273;22521;-80
2024/01/17 09:05:24;;;;;;;11.60;7.10;;;;;;;-0.50;72.62;95451.12;108582;1267;22525;-81
2024/01/17 09:07:56;;;;;;;12.90;7.60;;;;;;;-0.74;72.32;95450.60;108623;1268;22539;-81
2024/01/17 09:10:29;;;;;;;12.10;6.70;;;;;;;-0.65;72.30;95451.32;108544;1274;22604;-81
2024/01/17 09:12:59;;;;;;;11.80;7.00;;;;;;;-0.69;72.08;95441.77;108607;1274;22541;-82
2024/01/17 09:15:31;;;;;;;13.60;7.90;;;;;;;-0.89;71.70;95437.48;108561;1266;23346;-81
2024/01/17 09:18:01;;;;;;;13.50;7.40;;;;;;;-0.93;71.48;95432.02;108590;1274;23282;-81
2024/01/17 09:20:32;;;;;;;11.70;7.10;;;;;;;-0.94;71.21;95430.85;108564;1273;24215;-81
2024/01/17 09:23:03;;;;;;;11.70;6.90;;;;;;;-0.99;71.06;95423.94;108566;1267;22644;-81
2024/01/17 09:25:34;;;;;;;10.10;6.40;;;;;;;-1.06;71.00;95418.98;108567;1273;24213;-82
2024/01/17 09:28:06;;;;;;;12.40;7.10;;;;;;;-1.06;70.70;95408.11;108618;1269;22549;-81
2024/01/17 09:30:37;;;;;;;11.90;6.60;;;;;;;-1.02;70.95;95400.02;108542;1273;24352;-81
2024/01/17 09:33:08;;;;;;;11.60;7.20;;;;;;;-0.80;71.54;95398.45;108588;1272;25030;-81
2024/01/17 09:35:42;;;;;;;12.10;6.80;;;;;;;-0.45;71.68;95388.41;108560;1266;22986;-81
2024/01/17 09:38:14;;;;;;;11.30;7.30;;;;;;;-0.17;72.16;95380.48;108539;1270;22528;-81
2024/01/17 09:40:49;;;;;;;13.50;7.90;;;;;;;-0.06;71.48;95371.02;108584;1274;22591;-82
2024/01/17 09:43:20;;;;;;;11.20;7.00;;;;;;;0.01;71.31;95365.28;108613;1274;23167;-81
2024/01/17 09:45:54;;;;;;;11.50;6.10;;;;;;;0.18;71.14;95354.85;108609;1273;22520;-82
2024/01/17 09:48:26;;;;;;;18.80;9.20;;;;;;;0.28;70.76;95353.36;108606;1269;22557;-81
2024/01/17 09:50:59;;;;;;;14.20;8.60;;;;;;;0.30;70.39;95351.70;108574;1267;22535;-81
2024/01/17 09:53:32;;;;;;;16.10;8.10;;;;;;;0.28;70.02;95346.20;108583;1273;23239;-81
2024/01/17 09:56:04;;;;;;;15.90;8.20;;;;;;;-0.14;69.53;95342.42;108609;1273;22523;-81
2024/01/17 09:58:36;;;;;;;18.90;8.50;;;;;;;-0.28;69.48;95343.34;108534;1274;22523;-82
2024/01/17 10:01:09;;;;;;;17.60;9.20;;;;;;;-0.59;68.91;95331.89;108559;1257;22531;-82
2024/01/17 10:03:43;;;;;;;15.60;7.70;;;;;;;-0.94;68.26;95323.62;108508;1275;22530;-82
2024/01/17 10:06:15;;;;;;;25.80;14.30;;;;;;;-1.15;68.74;95323.24;108504;1275;25390;-82
2024/01/17 10:08:47;;;;;;;24.00;13.30;;;;;;;-0.90;69.69;95307.56;108509;1267;22553;-81
2024/01/17 10:11:18;;;;;;;25.30;14.30;;;;;;;-0.52;69.80;95302.31;108590;1273;22532;-82
2024/01/17 10:13:49;;;;;;;25.60;13.80;;;;;;;-0.12;69.82;95291.98;108591;1273;22534;-82
2024/01/17 10:16:19;;;;;;;21.70;13.00;;;;;;;0.08;69.38;95280.36;108578;1266;22527;-82
2024/01/17 10:18:51;;;;;;;21.10;12.40;;;;;;;0.07;69.07;95276.45;108585;1273;22647;-81
2024/01/17 10:21:22;;;;;;;21.80;12.80;;;;;;;0.10;69.11;95276.69;108547;1273;22541;-81
2024/01/17 10:23:53;;;;;;;18.20;10.30;;;;;;;0.16;68.65;95273.73;108628;1270;22582;-81
2024/01/17 10:26:25;;;;;;;19.20;11.40;;;;;;;0.05;68.74;95266.02;108546;1273;22527;-82
2024/01/17 10:28:56;;;;;;;18.50;11.50;;;;;;;0.02;68.52;95266.20;108562;1273;22767;-81
2024/01/17 10:31:30;;;;;;;18.40;10.60;;;;;;;-0.03;68.30;95256.55;108544;1272;22540;-82
2024/01/17 10:34:01;;;;;;;22.80;13.00;;;;;;;-0.31;67.79;95261.38;108595;1266;25933;-81
2024/01/17 10:36:33;;;;;;;22.40;11.80;;;;;;;-0.38;67.88;95249.08;108560;1267;22528;-81
2024/01/17 10:39:05;;;;;;;16.90;10.10;;;;;;;-0.32;68.37;95242.61;108532;1273;22544;-81
2024/01/17 10:41:48;;;;;;;20.40;10.00;;;;;;;-0.21;68.37;95243.27;108600;1274;22715;-81
2024/01/17 10:44:21;;;;;;;12.10;7.20;;;;;;;-0.12;68.15;95237.09;108534;1269;22635;-81
2024/01/17 10:46:53;;;;;;;9.60;5.60;;;;;;;-0.17;67.89;95234.70;108567;1270;22538;-81
2024/01/17 10:49:25;;;;;;;11.00;6.00;;;;;;;-0.22;67.28;95230.81;108554;1273;22545;-80
2024/01/17 10:52:02;;;;;;;11.40;6.00;;;;;;;-0.28;67.30;95228.83;108568;1266;25415;-80
2024/01/17 10:54:41;;;;;;;9.60;4.40;;;;;;;-0.31;67.16;95219.14;108557;1274;22987;-81
2024/01/17 10:57:11;;;;;;;;;;;;;;;-0.37;66.54;95203.11;108583;1273;22515;-81
2024/01/17 10:59:47;;;;;;;8.80;4.90;;;;;;;-0.36;66.60;95200.98;108663;1269;22527;-81
2024/01/17 11:02:20;;;;;;;9.10;5.40;;;;;;;-0.34;66.83;95199.13;108679;1273;22647;-81
2024/01/17 11:04:59;;;;;;;9.00;5.00;;;;;;;-0.19;67.31;95192.30;108660;1273;25272;-81
2024/01/17 11:07:31;;;;;;;15.30;9.20;;;;;;;-0.09;67.12;95190.38;108691;1273;25291;-81
2024/01/17 11:10:05;;;;;;;18.80;11.00;;;;;;;-0.24;66.70;95181.93;108609;1269;22527;-81
2024/01/17 11:12:39;;;;;;;19.80;12.30;;;;;;;-0.39;66.70;95175.23;108559;1268;25457;-81
2024/01/17 11:15:12;;;;;;;20.50;12.10;;;;;;;-0.51;66.49;95166.70;108674;1270;22546;-81
2024/01/17 11:17:46;;;;;;;22.20;12.80;;;;;;;-0.74;66.03;95163.17;108608;1273;22527;-81
2024/01/17 11:20:18;;;;;;;22.60;12.20;;;;;;;-0.88;66.17;95160.96;108598;1273;23334;-81
2024/01/17 11:22:50;;;;;;;20.00;12.40;;;;;;;-0.94;66.19;95162.52;108559;1273;23038;-81
2024/01/17 11:25:35;;;;;;;21.30;12.80;;;;;;;-1.02;66.34;95153.20;108597;1262;22528;-81
2024/01/17 11:28:19;;;;;;;20.40;11.70;;;;;;;-0.98;66.58;95148.21;108618;1274;22652;-81
2024/01/17 11:31:12;;;;;;;17.50;9.90;;;;;;;-0.98;66.86;95143.99;108554;1274;22523;-81
2024/01/17 11:33:44;;;;;;;17.10;9.10;;;;;;;-0.87;67.01;95141.67;108651;1273;22531;-83
2024/01/17 11:36:42;;;;;;;13.80;9.40;;;;;;;-0.75;67.02;95134.17;108563;1266;22593;-82
2024/01/17 11:39:15;;;;;;;16.20;8.10;;;;;;;-0.70;66.90;95125.39;108665;1266;22551;-82